sensor_id;sensor_type;location;lat;lon;timestamp;pressure;altitude;pressure_sealevel;temperature;humidity
4085;BME280;2057;50.858;6.572;2023-11-19T00:00:33;99799.22;;;11.98;100.00
4085;BME280;2057;50.858;6.572;2023-11-19T00:02:58;99800.81;;;11.96;100.00
4085;BME280;2057;50.858;6.572;2023-11-19T00:05:23;99805.91;;;11.96;100.00
4085;BME280;2057;50.858;6.572;2023-11-19T00:07:49;99791.25;;;12.14;100.00
4085;BME280;2057;50.858;6.572;2023-11-19T00:10:16;99800.28;;;12.04;100.00
4085;BME280;2057;50.858;6.572;2023-11-19T00:12:45;99800.66;;;12.17;100.00
4085;BME280;2057;50.858;6.572;2023-11-19T00:15:12;99791.06;;;12.08;100.00
4085;BME280;2057;50.858;6.572;2023-11-19T00:17:42;99783.34;;;12.05;100.00
4085;BME280;2057;50.858;6.572;2023-11-19T00:20:11;99787.78;;;12.12;100.00
4085;BME280;2057;50.858;6.572;2023-11-19T00:22:37;99796.44;;;12.17;100.00
4085;BME280;2057;50.858;6.572;2023-11-19T00:25:03;99797.06;;;12.10;100.00
4085;BME280;2057;50.858;6.572;2023-11-19T00:27:28;99791.06;;;12.08;100.00
4085;BME280;2057;50.858;6.572;2023-11-19T00:29:54;99790.19;;;12.07;100.00
4085;BME280;2057;50.858;6.572;2023-11-19T00:32:19;99776.66;;;12.08;100.00
4085;BME280;2057;50.858;6.572;2023-11-19T00:34:44;99770.63;;;12.05;100.00
4085;BME280;2057;50.858;6.572;2023-11-19T00:37:10;99774.75;;;12.01;100.00
4085;BME280;2057;50.858;6.572;2023-11-19T00:39:35;99770.28;;;11.96;100.00
4085;BME280;2057;50.858;6.572;2023-11-19T00:42:01;99787.25;;;11.95;100.00
4085;BME280;2057;50.858;6.572;2023-11-19T00:44:28;99786.44;;;11.96;100.00
4085;BME280;2057;50.858;6.572;2023-11-19T00:46:54;99788.31;;;12.02;100.00
4085;BME280;2057;50.858;6.572;2023-11-19T00:49:19;99795.06;;;12.00;100.00
4085;BME280;2057;50.858;6.572;2023-11-19T00:51:45;99798.41;;;11.99;100.00
4085;BME280;2057;50.858;6.572;2023-11-19T00:54:10;99815.41;;;12.00;100.00
4085;BME280;2057;50.858;6.572;2023-11-19T00:56:36;99788.38;;;12.03;100.00
4085;BME280;2057;50.858;6.572;2023-11-19T00:59:02;99783.28;;;12.03;100.00
4085;BME280;2057;50.858;6.572;2023-11-19T01:01:27;99778.94;;;12.01;100.00
4085;BME280;2057;50.858;6.572;2023-11-19T01:03:53;99776.38;;;11.99;100.00
4085;BME280;2057;50.858;6.572;2023-11-19T01:06:31;99782.34;;;12.00;100.00
4085;BME280;2057;50.858;6.572;2023-11-19T01:08:57;99785.91;;;12.06;100.00
4085;BME280;2057;50.858;6.572;2023-11-19T01:11:23;99782.63;;;12.09;100.00
4085;BME280;2057;50.858;6.572;2023-11-19T01:13:49;99776.81;;;12.13;100.00
4085;BME280;2057;50.858;6.572;2023-11-19T01:16:15;99773.44;;;12.14;100.00
4085;BME280;2057;50.858;6.572;2023-11-19T01:18:40;99783.72;;;12.17;100.00
4085;BME280;2057;50.858;6.572;2023-11-19T01:21:06;99774.53;;;12.22;100.00
4085;BME280;2057;50.858;6.572;2023-11-19T01:23:31;99768.69;;;12.25;100.00
4085;BME280;2057;50.858;6.572;2023-11-19T01:25:58;99765.31;;;12.26;100.00
4085;BME280;2057;50.858;6.572;2023-11-19T01:28:23;99769.63;;;12.29;100.00
4085;BME280;2057;50.858;6.572;2023-11-19T01:30:51;99772.13;;;12.27;100.00
4085;BME280;2057;50.858;6.572;2023-11-19T01:33:16;99770.25;;;12.21;100.00
4085;BME280;2057;50.858;6.572;2023-11-19T01:35:42;99775.41;;;12.23;100.00
4085;BME280;2057;50.858;6.572;2023-11-19T01:38:07;99783.88;;;12.22;100.00
4085;BME280;2057;50.858;6.572;2023-11-19T01:40:34;99775.31;;;12.20;100.00
4085;BME280;2057;50.858;6.572;2023-11-19T01:42:59;99776.84;;;12.15;100.00
4085;BME280;2057;50.858;6.572;2023-11-19T01:45:28;99762.53;;;12.18;100.00
4085;BME280;2057;50.858;6.572;2023-11-19T01:47:56;99754.28;;;12.26;100.00
4085;BME280;2057;50.858;6.572;2023-11-19T01:50:22;99757.81;;;12.31;100.00
4085;BME280;2057;50.858;6.572;2023-11-19T01:52:51;99763.66;;;12.27;100.00
4085;BME280;2057;50.858;6.572;2023-11-19T01:55:17;99767.00;;;12.26;100.00
4085;BME280;2057;50.858;6.572;2023-11-19T01:57:43;99764.38;;;12.22;100.00
4085;BME280;2057;50.858;6.572;2023-11-19T02:00:09;99777.09;;;12.22;100.00
4085;BME280;2057;50.858;6.572;2023-11-19T02:02:39;99767.81;;;12.24;100.00
4085;BME280;2057;50.858;6.572;2023-11-19T02:05:05;99759.28;;;12.22;100.00
4085;BME280;2057;50.858;6.572;2023-11-19T02:07:31;99744.19;;;12.29;100.00
4085;BME280;2057;50.858;6.572;2023-11-19T02:09:57;99731.38;;;12.26;100.00
4085;BME280;2057;50.858;6.572;2023-11-19T02:12:25;99720.31;;;12.25;100.00
4085;BME280;2057;50.858;6.572;2023-11-19T02:14:53;99731.41;;;12.27;100.00
4085;BME280;2057;50.858;6.572;2023-11-19T02:17:28;99713.47;;;12.22;100.00
4085;BME280;2057;50.858;6.572;2023-11-19T02:19:56;99712.66;;;12.23;100.00
4085;BME280;2057;50.858;6.572;2023-11-19T02:22:21;99721.09;;;12.22;100.00
4085;BME280;2057;50.858;6.572;2023-11-19T02:24:49;99715.91;;;12.19;100.00
4085;BME280;2057;50.858;6.572;2023-11-19T02:29:54;99714.25;;;12.20;100.00
4085;BME280;2057;50.858;6.572;2023-11-19T02:32:19;99718.59;;;12.24;100.00
4085;BME280;2057;50.858;6.572;2023-11-19T02:34:45;99722.72;;;12.20;100.00
4085;BME280;2057;50.858;6.572;2023-11-19T02:37:11;99725.09;;;12.14;100.00
4085;BME280;2057;50.858;6.572;2023-11-19T02:39:36;99701.22;;;12.09;100.00
4085;BME280;2057;50.858;6.572;2023-11-19T03:36:36;99672.50;;;12.15;100.00
4085;BME280;2057;50.858;6.572;2023-11-19T03:44:12;99673.41;;;12.15;100.00
4085;BME280;2057;50.858;6.572;2023-11-19T03:46:37;99680.84;;;12.09;100.00
4085;BME280;2057;50.858;6.572;2023-11-19T03:49:03;99682.56;;;12.10;100.00
4085;BME280;2057;50.858;6.572;2023-11-19T03:51:29;99691.06;;;12.11;100.00
4085;BME280;2057;50.858;6.572;2023-11-19T03:53:54;99689.38;;;12.11;100.00
4085;BME280;2057;50.858;6.572;2023-11-19T03:56:20;99686.97;;;12.16;100.00
4085;BME280;2057;50.858;6.572;2023-11-19T03:58:46;99687.09;;;12.20;100.00
4085;BME280;2057;50.858;6.572;2023-11-19T04:01:12;99694.66;;;12.17;100.00
4085;BME280;2057;50.858;6.572;2023-11-19T04:03:40;99697.09;;;12.14;100.00
4085;BME280;2057;50.858;6.572;2023-11-19T04:06:06;99705.66;;;12.16;100.00
4085;BME280;2057;50.858;6.572;2023-11-19T04:08:31;99704.91;;;12.20;100.00
4085;BME280;2057;50.858;6.572;2023-11-19T04:10:59;99699.03;;;12.23;100.00
4085;BME280;2057;50.858;6.572;2023-11-19T04:13:26;99697.09;;;12.14;100.00
4085;BME280;2057;50.858;6.572;2023-11-19T04:15:51;99702.09;;;12.11;100.00
4085;BME280;2057;50.858;6.572;2023-11-19T04:18:19;99703.63;;;12.04;100.00
4085;BME280;2057;50.858;6.572;2023-11-19T04:20:45;99699.38;;;12.05;100.00
4085;BME280;2057;50.858;6.572;2023-11-19T04:23:10;99705.75;;;11.92;100.00
4085;BME280;2057;50.858;6.572;2023-11-19T04:25:36;99703.06;;;11.87;100.00
4085;BME280;2057;50.858;6.572;2023-11-19T04:28:02;99701.25;;;11.83;100.00
4085;BME280;2057;50.858;6.572;2023-11-19T04:30:28;99713.13;;;11.84;100.00
4085;BME280;2057;50.858;6.572;2023-11-19T04:32:53;99705.63;;;11.89;100.00
4085;BME280;2057;50.858;6.572;2023-11-19T04:35:18;99708.00;;;11.83;100.00
4085;BME280;2057;50.858;6.572;2023-11-19T04:37:44;99701.28;;;11.85;100.00
4085;BME280;2057;50.858;6.572;2023-11-19T04:40:10;99707.28;;;11.87;100.00
4085;BME280;2057;50.858;6.572;2023-11-19T04:42:37;99708.00;;;11.83;100.00
4085;BME280;2057;50.858;6.572;2023-11-19T04:45:05;99715.88;;;11.90;100.00
4085;BME280;2057;50.858;6.572;2023-11-19T04:47:32;99711.78;;;11.96;100.00
4085;BME280;2057;50.858;6.572;2023-11-19T04:49:58;99711.50;;;11.86;100.00
4085;BME280;2057;50.858;6.572;2023-11-19T04:52:23;99729.44;;;11.91;100.00
4085;BME280;2057;50.858;6.572;2023-11-19T04:54:48;99709.38;;;11.99;100.00
4085;BME280;2057;50.858;6.572;2023-11-19T04:57:14;99714.22;;;11.92;100.00
4085;BME280;2057;50.858;6.572;2023-11-19T04:59:41;99725.84;;;11.84;100.00
4085;BME280;2057;50.858;6.572;2023-11-19T05:02:08;99722.47;;;11.85;100.00
4085;BME280;2057;50.858;6.572;2023-11-19T05:04:36;99731.84;;;11.86;100.00
4085;BME280;2057;50.858;6.572;2023-11-19T05:07:03;99734.38;;;11.86;100.00
4085;BME280;2057;50.858;6.572;2023-11-19T05:09:28;99741.94;;;11.83;100.00
4085;BME280;2057;50.858;6.572;2023-11-19T05:11:53;99739.28;;;11.80;100.00
4085;BME280;2057;50.858;6.572;2023-11-19T05:14:19;99733.59;;;11.89;100.00
4085;BME280;2057;50.858;6.572;2023-11-19T05:16:45;99748.72;;;11.84;100.00
4085;BME280;2057;50.858;6.572;2023-11-19T05:19:14;99722.59;;;11.88;100.00
4085;BME280;2057;50.858;6.572;2023-11-19T05:21:42;99739.50;;;11.88;100.00
4085;BME280;2057;50.858;6.572;2023-11-19T05:24:07;99730.22;;;11.88;100.00
4085;BME280;2057;50.858;6.572;2023-11-19T05:26:33;99729.41;;;11.89;100.00
4085;BME280;2057;50.858;6.572;2023-11-19T05:28:58;99745.28;;;11.82;100.00
4085;BME280;2057;50.858;6.572;2023-11-19T05:31:23;99732.47;;;11.79;100.00
4085;BME280;2057;50.858;6.572;2023-11-19T05:33:51;99729.22;;;11.83;100.00
4085;BME280;2057;50.858;6.572;2023-11-19T05:36:16;99751.41;;;11.89;100.00
4085;BME280;2057;50.858;6.572;2023-11-19T05:38:42;99747.84;;;11.82;100.00
4085;BME280;2057;50.858;6.572;2023-11-19T05:41:09;99759.97;;;11.91;100.00
4085;BME280;2057;50.858;6.572;2023-11-19T05:43:35;99753.06;;;11.87;100.00
4085;BME280;2057;50.858;6.572;2023-11-19T05:46:03;99752.81;;;11.79;100.00
4085;BME280;2057;50.858;6.572;2023-11-19T05:48:28;99747.91;;;11.85;100.00
4085;BME280;2057;50.858;6.572;2023-11-19T05:50:54;99744.19;;;11.74;100.00
4085;BME280;2057;50.858;6.572;2023-11-19T05:53:20;99761.56;;;11.87;100.00
4085;BME280;2057;50.858;6.572;2023-11-19T05:55:45;99754.66;;;11.83;100.00
4085;BME280;2057;50.858;6.572;2023-11-19T05:58:14;99752.28;;;11.89;100.00
4085;BME280;2057;50.858;6.572;2023-11-19T06:00:47;99750.56;;;11.88;100.00
4085;BME280;2057;50.858;6.572;2023-11-19T06:03:13;99753.00;;;11.85;100.00
4085;BME280;2057;50.858;6.572;2023-11-19T06:05:38;99760.63;;;11.85;100.00
4085;BME280;2057;50.858;6.572;2023-11-19T06:08:06;99768.25;;;11.85;100.00
4085;BME280;2057;50.858;6.572;2023-11-19T06:10:32;99758.84;;;11.83;100.00
4085;BME280;2057;50.858;6.572;2023-11-19T06:12:58;99763.84;;;11.80;100.00
4085;BME280;2057;50.858;6.572;2023-11-19T06:15:27;99771.44;;;11.78;100.00
4085;BME280;2057;50.858;6.572;2023-11-19T06:17:53;99762.13;;;11.79;100.00
4085;BME280;2057;50.858;6.572;2023-11-19T06:20:19;99769.00;;;11.81;100.00
4085;BME280;2057;50.858;6.572;2023-11-19T06:22:45;99776.41;;;11.75;100.00
4085;BME280;2057;50.858;6.572;2023-11-19T06:25:11;99778.09;;;11.74;100.00
4085;BME280;2057;50.858;6.572;2023-11-19T06:27:36;99780.59;;;11.73;100.00
4085;BME280;2057;50.858;6.572;2023-11-19T06:30:02;99778.72;;;11.67;100.00
4085;BME280;2057;50.858;6.572;2023-11-19T06:32:27;99779.97;;;11.80;100.00
4085;BME280;2057;50.858;6.572;2023-11-19T06:34:53;99776.50;;;11.78;100.00
4085;BME280;2057;50.858;6.572;2023-11-19T06:37:19;99753.50;;;11.75;100.00
4085;BME280;2057;50.858;6.572;2023-11-19T06:39:44;99760.09;;;11.68;100.00
4085;BME280;2057;50.858;6.572;2023-11-19T06:42:09;99771.19;;;11.70;100.00
4085;BME280;2057;50.858;6.572;2023-11-19T06:44:35;99773.53;;;11.64;100.00
4085;BME280;2057;50.858;6.572;2023-11-19T06:47:00;99778.34;;;11.82;100.00
4085;BME280;2057;50.858;6.572;2023-11-19T06:49:25;99785.75;;;11.76;100.00
4085;BME280;2057;50.858;6.572;2023-11-19T06:51:51;99795.03;;;11.74;100.00
4085;BME280;2057;50.858;6.572;2023-11-19T06:54:24;99799.00;;;11.66;100.00
4085;BME280;2057;50.858;6.572;2023-11-19T06:56:49;99792.13;;;11.63;100.00
4085;BME280;2057;50.858;6.572;2023-11-19T06:59:14;99793.19;;;11.70;100.00
4085;BME280;2057;50.858;6.572;2023-11-19T07:01:40;99781.81;;;11.58;100.00
4085;BME280;2057;50.858;6.572;2023-11-19T07:04:10;99784.47;;;11.61;100.00
4085;BME280;2057;50.858;6.572;2023-11-19T07:06:36;99781.59;;;11.52;100.00
4085;BME280;2057;50.858;6.572;2023-11-19T07:09:02;99773.72;;;11.44;100.00
4085;BME280;2057;50.858;6.572;2023-11-19T07:11:41;99771.16;;;11.44;100.00
4085;BME280;2057;50.858;6.572;2023-11-19T07:14:09;99776.13;;;11.40;100.00
4085;BME280;2057;50.858;6.572;2023-11-19T07:16:35;99777.03;;;11.42;100.00
4085;BME280;2057;50.858;6.572;2023-11-19T07:19:03;99784.63;;;11.42;100.00
4085;BME280;2057;50.858;6.572;2023-11-19T07:21:28;99788.84;;;11.40;100.00
4085;BME280;2057;50.858;6.572;2023-11-19T07:23:57;99799.00;;;11.40;100.00
4085;BME280;2057;50.858;6.572;2023-11-19T07:26:22;99800.53;;;11.36;100.00
4085;BME280;2057;50.858;6.572;2023-11-19T07:28:49;99800.63;;;11.38;100.00
4085;BME280;2057;50.858;6.572;2023-11-19T07:31:14;99810.78;;;11.38;100.00
4085;BME280;2057;50.858;6.572;2023-11-19T07:33:39;99814.13;;;11.37;100.00
4085;BME280;2057;50.858;6.572;2023-11-19T07:36:08;99824.28;;;11.37;100.00
4085;BME280;2057;50.858;6.572;2023-11-19T07:38:33;99826.84;;;11.37;100.00
4085;BME280;2057;50.858;6.572;2023-11-19T07:41:01;99832.84;;;11.39;100.00
4085;BME280;2057;50.858;6.572;2023-11-19T07:43:28;99839.88;;;11.46;100.00
4085;BME280;2057;50.858;6.572;2023-11-19T07:45:54;99847.41;;;11.44;100.00
4085;BME280;2057;50.858;6.572;2023-11-19T07:48:19;99845.81;;;11.46;100.00
4085;BME280;2057;50.858;6.572;2023-11-19T07:50:49;99841.69;;;11.50;100.00
4085;BME280;2057;50.858;6.572;2023-11-19T07:53:19;99844.88;;;11.44;100.00
4085;BME280;2057;50.858;6.572;2023-11-19T07:55:45;99839.91;;;11.48;100.00
4085;BME280;2057;50.858;6.572;2023-11-19T07:58:11;99843.22;;;11.45;100.00
4085;BME280;2057;50.858;6.572;2023-11-19T08:00:37;99856.09;;;11.50;100.00
4085;BME280;2057;50.858;6.572;2023-11-19T08:03:03;99839.16;;;11.50;100.00
4085;BME280;2057;50.858;6.572;2023-11-19T08:05:28;99839.16;;;11.50;100.00
4085;BME280;2057;50.858;6.572;2023-11-19T08:07:53;99841.00;;;11.54;100.00
4085;BME280;2057;50.858;6.572;2023-11-19T08:10:19;99845.16;;;11.52;100.00
4085;BME280;2057;50.858;6.572;2023-11-19T08:12:45;99844.31;;;11.52;100.00
4085;BME280;2057;50.858;6.572;2023-11-19T08:15:10;99849.31;;;11.50;100.00
4085;BME280;2057;50.858;6.572;2023-11-19T08:17:36;99850.25;;;11.52;100.00
4085;BME280;2057;50.858;6.572;2023-11-19T08:20:02;99849.47;;;11.55;100.00
4085;BME280;2057;50.858;6.572;2023-11-19T08:22:32;99840.97;;;11.53;100.00
4085;BME280;2057;50.858;6.572;2023-11-19T08:24:57;99833.38;;;11.54;100.00
4085;BME280;2057;50.858;6.572;2023-11-19T08:27:26;99835.75;;;11.50;100.00
4085;BME280;2057;50.858;6.572;2023-11-19T08:29:57;99839.16;;;11.50;100.00
4085;BME280;2057;50.858;6.572;2023-11-19T08:32:26;99829.88;;;11.51;100.00
4085;BME280;2057;50.858;6.572;2023-11-19T08:34:52;99814.84;;;11.58;100.00
4085;BME280;2057;50.858;6.572;2023-11-19T08:37:17;99818.22;;;11.57;100.00
4085;BME280;2057;50.858;6.572;2023-11-19T08:39:49;99813.84;;;11.53;100.00
4085;BME280;2057;50.858;6.572;2023-11-19T08:42:15;99826.66;;;11.56;100.00
4085;BME280;2057;50.858;6.572;2023-11-19T08:44:41;99832.50;;;11.54;100.00
4085;BME280;2057;50.858;6.572;2023-11-19T08:47:11;99831.00;;;11.59;100.00
4085;BME280;2057;50.858;6.572;2023-11-19T08:49:48;99833.50;;;11.57;100.00
4085;BME280;2057;50.858;6.572;2023-11-19T08:52:20;99822.28;;;11.52;100.00
4085;BME280;2057;50.858;6.572;2023-11-19T08:54:45;99809.75;;;11.58;100.00
4085;BME280;2057;50.858;6.572;2023-11-19T08:57:11;99831.00;;;11.59;100.00
4085;BME280;2057;50.858;6.572;2023-11-19T08:59:37;99840.38;;;11.61;100.00
4085;BME280;2057;50.858;6.572;2023-11-19T09:02:05;99838.66;;;11.60;100.00
4085;BME280;2057;50.858;6.572;2023-11-19T09:04:32;99849.03;;;11.67;100.00
4085;BME280;2057;50.858;6.572;2023-11-19T09:06:57;99845.66;;;11.68;100.00
4085;BME280;2057;50.858;6.572;2023-11-19T09:09:23;99834.84;;;11.73;100.00
4085;BME280;2057;50.858;6.572;2023-11-19T09:11:48;99836.47;;;11.71;100.00
4085;BME280;2057;50.858;6.572;2023-11-19T09:14:14;99834.09;;;11.76;100.00
4085;BME280;2057;50.858;6.572;2023-11-19T09:16:39;99823.19;;;11.79;100.00
4085;BME280;2057;50.858;6.572;2023-11-19T09:19:04;99835.03;;;11.80;100.00
4085;BME280;2057;50.858;6.572;2023-11-19T09:21:30;99835.19;;;11.84;100.00
4085;BME280;2057;50.858;6.572;2023-11-19T09:23:55;99826.06;;;11.89;100.00
4085;BME280;2057;50.858;6.572;2023-11-19T09:26:21;99830.34;;;11.90;100.00
4085;BME280;2057;50.858;6.572;2023-11-19T09:28:48;99834.69;;;11.95;100.00
4085;BME280;2057;50.858;6.572;2023-11-19T09:31:17;99838.34;;;12.01;100.00
4085;BME280;2057;50.858;6.572;2023-11-19T09:33:43;99808.78;;;12.05;100.00
4085;BME280;2057;50.858;6.572;2023-11-19T09:36:09;99824.97;;;12.07;100.00
4085;BME280;2057;50.858;6.572;2023-11-19T09:38:37;99832.59;;;12.07;100.00
4085;BME280;2057;50.858;6.572;2023-11-19T09:41:06;99835.13;;;12.07;100.00
4085;BME280;2057;50.858;6.572;2023-11-19T09:43:35;99849.63;;;12.10;100.00
4085;BME280;2057;50.858;6.572;2023-11-19T09:46:07;99843.72;;;12.11;100.00
4085;BME280;2057;50.858;6.572;2023-11-19T09:48:37;99842.03;;;12.11;100.00
4085;BME280;2057;50.858;6.572;2023-11-19T09:51:03;99830.38;;;12.18;100.00
4085;BME280;2057;50.858;6.572;2023-11-19T09:53:29;99834.69;;;12.20;100.00
4085;BME280;2057;50.858;6.572;2023-11-19T09:55:55;99849.16;;;12.21;100.00
4085;BME280;2057;50.858;6.572;2023-11-19T09:58:21;99844.19;;;12.24;100.00
4085;BME280;2057;50.858;6.572;2023-11-19T10:00:47;99845.13;;;12.28;100.00
4085;BME280;2057;50.858;6.572;2023-11-19T10:03:12;99860.28;;;12.25;100.00
4085;BME280;2057;50.858;6.572;2023-11-19T10:05:43;99843.59;;;12.33;100.00
4085;BME280;2057;50.858;6.572;2023-11-19T10:08:10;99833.47;;;12.35;100.00
4085;BME280;2057;50.858;6.572;2023-11-19T10:10:37;99831.97;;;12.42;100.00
4085;BME280;2057;50.858;6.572;2023-11-19T10:13:02;99831.09;;;12.41;100.00
4085;BME280;2057;50.858;6.572;2023-11-19T10:15:35;99848.28;;;12.48;100.00
4085;BME280;2057;50.858;6.572;2023-11-19T10:18:01;99837.44;;;12.54;100.00
4085;BME280;2057;50.858;6.572;2023-11-19T10:20:29;99836.75;;;12.60;100.00
4085;BME280;2057;50.858;6.572;2023-11-19T10:22:55;99827.53;;;12.63;100.00
4085;BME280;2057;50.858;6.572;2023-11-19T10:25:28;99833.75;;;12.73;100.00
4085;BME280;2057;50.858;6.572;2023-11-19T10:27:55;99825.28;;;12.74;100.00
4085;BME280;2057;50.858;6.572;2023-11-19T10:30:25;99832.84;;;12.71;100.00
4085;BME280;2057;50.858;6.572;2023-11-19T10:33:13;99824.47;;;12.75;100.00
4085;BME280;2057;50.858;6.572;2023-11-19T10:35:58;99833.19;;;12.83;100.00
4085;BME280;2057;50.858;6.572;2023-11-19T10:38:24;99835.66;;;12.80;100.00
4085;BME280;2057;50.858;6.572;2023-11-19T10:40:51;99848.47;;;12.82;100.00
4085;BME280;2057;50.858;6.572;2023-11-19T10:43:17;99842.41;;;12.78;100.00
4085;BME280;2057;50.858;6.572;2023-11-19T10:45:43;99829.88;;;12.86;100.00
4085;BME280;2057;50.858;6.572;2023-11-19T10:48:09;99836.88;;;12.93;100.00
4085;BME280;2057;50.858;6.572;2023-11-19T10:50:38;99851.47;;;12.99;100.00
4085;BME280;2057;50.858;6.572;2023-11-19T10:53:04;99835.75;;;13.14;100.00
4085;BME280;2057;50.858;6.572;2023-11-19T10:55:35;99826.59;;;13.21;100.00
4085;BME280;2057;50.858;6.572;2023-11-19T10:58:02;99842.56;;;13.13;100.00
4085;BME280;2057;50.858;6.572;2023-11-19T11:00:46;99822.72;;;13.03;100.00
4085;BME280;2057;50.858;6.572;2023-11-19T11:03:20;99822.78;;;13.06;100.00
4085;BME280;2057;50.858;6.572;2023-11-19T11:05:51;99827.13;;;13.09;100.00
4085;BME280;2057;50.858;6.572;2023-11-19T11:08:20;99827.69;;;12.98;100.00
4085;BME280;2057;50.858;6.572;2023-11-19T11:10:54;99836.13;;;12.96;100.00
4085;BME280;2057;50.858;6.572;2023-11-19T11:13:22;99842.66;;;12.87;100.00
4085;BME280;2057;50.858;6.572;2023-11-19T11:15:51;99831.97;;;12.70;100.00
4085;BME280;2057;50.858;6.572;2023-11-19T11:18:17;99850.66;;;12.71;100.00
4085;BME280;2057;50.858;6.572;2023-11-19T11:20:46;99832.16;;;12.77;100.00
4085;BME280;2057;50.858;6.572;2023-11-19T11:31:46;99822.47;;;12.94;100.00
4085;BME280;2057;50.858;6.572;2023-11-19T11:39:40;99813.47;;;12.76;100.00
4085;BME280;2057;50.858;6.572;2023-11-19T11:50:09;99809.16;;;12.74;100.00
4085;BME280;2057;50.858;6.572;2023-11-19T11:57:58;99808.44;;;12.79;100.00
4085;BME280;2057;50.858;6.572;2023-11-19T12:00:29;99805.91;;;12.79;100.00
4085;BME280;2057;50.858;6.572;2023-11-19T12:02:56;99801.00;;;12.85;100.00
4085;BME280;2057;50.858;6.572;2023-11-19T12:05:22;99810.63;;;12.96;100.00
4085;BME280;2057;50.858;6.572;2023-11-19T12:08:00;99794.63;;;13.01;100.00
4085;BME280;2057;50.858;6.572;2023-11-19T12:10:28;99806.63;;;13.04;100.00
4085;BME280;2057;50.858;6.572;2023-11-19T12:13:00;99792.06;;;13.00;100.00
4085;BME280;2057;50.858;6.572;2023-11-19T12:15:26;99792.19;;;13.05;100.00
4085;BME280;2057;50.858;6.572;2023-11-19T12:17:53;99791.38;;;13.06;100.00
4085;BME280;2057;50.858;6.572;2023-11-19T12:20:23;99783.75;;;13.07;100.00
4085;BME280;2057;50.858;6.572;2023-11-19T12:22:49;99792.22;;;13.06;100.00
4085;BME280;2057;50.858;6.572;2023-11-19T12:25:17;99797.16;;;13.00;100.00
4085;BME280;2057;50.858;6.572;2023-11-19T12:27:50;99795.72;;;13.10;100.00
4085;BME280;2057;50.858;6.572;2023-11-19T12:30:25;99795.13;;;13.20;100.00
4085;BME280;2057;50.858;6.572;2023-11-19T12:32:53;99795.69;;;13.08;100.00
4085;BME280;2057;50.858;6.572;2023-11-19T12:35:22;99795.56;;;13.05;100.00
4085;BME280;2057;50.858;6.572;2023-11-19T12:37:49;99807.69;;;13.12;100.00
4085;BME280;2057;50.858;6.572;2023-11-19T12:42:45;99791.06;;;13.27;100.00
4085;BME280;2057;50.858;6.572;2023-11-19T12:45:11;99789.75;;;13.09;100.00
4085;BME280;2057;50.858;6.572;2023-11-19T12:47:40;99799.72;;;13.01;100.00
4085;BME280;2057;50.858;6.572;2023-11-19T12:50:07;99788.06;;;13.10;100.00
4085;BME280;2057;50.858;6.572;2023-11-19T12:52:38;99796.72;;;13.15;100.00
4085;BME280;2057;50.858;6.572;2023-11-19T12:55:05;99795.84;;;13.14;100.00
4085;BME280;2057;50.858;6.572;2023-11-19T12:57:57;99782.13;;;13.09;100.00
4085;BME280;2057;50.858;6.572;2023-11-19T13:00:27;99774.38;;;13.06;100.00
4085;BME280;2057;50.858;6.572;2023-11-19T13:02:54;99793.09;;;13.07;100.00
4085;BME280;2057;50.858;6.572;2023-11-19T13:05:33;99782.00;;;13.05;100.00
4085;BME280;2057;50.858;6.572;2023-11-19T13:08:03;99775.94;;;13.01;100.00
4085;BME280;2057;50.858;6.572;2023-11-19T13:10:33;99777.81;;;13.07;100.00
4085;BME280;2057;50.858;6.572;2023-11-19T13:13:04;99780.28;;;13.05;100.00
4085;BME280;2057;50.858;6.572;2023-11-19T13:15:30;99782.00;;;13.05;100.00
4085;BME280;2057;50.858;6.572;2023-11-19T13:17:55;99778.19;;;13.21;100.00
4085;BME280;2057;50.858;6.572;2023-11-19T13:20:21;99777.31;;;13.20;100.00
4085;BME280;2057;50.858;6.572;2023-11-19T13:23:02;99783.19;;;13.17;100.00
4085;BME280;2057;50.858;6.572;2023-11-19T13:25:29;99782.38;;;13.18;100.00
4085;BME280;2057;50.858;6.572;2023-11-19T13:27:55;99780.72;;;13.21;100.00
4085;BME280;2057;50.858;6.572;2023-11-19T13:30:21;99774.72;;;13.18;100.00
4085;BME280;2057;50.858;6.572;2023-11-19T13:32:50;99778.91;;;13.16;100.00
4085;BME280;2057;50.858;6.572;2023-11-19T13:35:17;99773.97;;;13.23;100.00
4085;BME280;2057;50.858;6.572;2023-11-19T13:37:43;99767.19;;;13.23;100.00
4085;BME280;2057;50.858;6.572;2023-11-19T13:40:11;99764.69;;;13.25;100.00
4085;BME280;2057;50.858;6.572;2023-11-19T13:42:46;99756.22;;;13.26;100.00
4085;BME280;2057;50.858;6.572;2023-11-19T13:45:12;99762.13;;;13.25;100.00
4085;BME280;2057;50.858;6.572;2023-11-19T13:47:44;99756.31;;;13.30;100.00
4085;BME280;2057;50.858;6.572;2023-11-19T13:50:12;99764.28;;;13.41;99.39
4085;BME280;2057;50.858;6.572;2023-11-19T13:52:38;99764.94;;;13.36;99.07
4085;BME280;2057;50.858;6.572;2023-11-19T13:55:09;99754.81;;;13.37;99.22
4085;BME280;2057;50.858;6.572;2023-11-19T13:57:38;99747.25;;;13.40;99.40
4085;BME280;2057;50.858;6.572;2023-11-19T14:00:06;99746.97;;;13.31;99.77
4085;BME280;2057;50.858;6.572;2023-11-19T14:02:34;99749.38;;;13.25;99.75
4085;BME280;2057;50.858;6.572;2023-11-19T14:05:00;99757.44;;;13.08;99.77
4085;BME280;2057;50.858;6.572;2023-11-19T14:07:25;99752.31;;;13.07;100.00
4085;BME280;2057;50.858;6.572;2023-11-19T14:09:53;99750.75;;;13.12;100.00
4085;BME280;2057;50.858;6.572;2023-11-19T14:12:19;99750.06;;;13.17;100.00
4085;BME280;2057;50.858;6.572;2023-11-19T14:14:44;99747.22;;;13.07;100.00
4085;BME280;2057;50.858;6.572;2023-11-19T14:17:10;99760.69;;;13.02;100.00
4085;BME280;2057;50.858;6.572;2023-11-19T14:19:36;99769.94;;;12.99;100.00
4085;BME280;2057;50.858;6.572;2023-11-19T14:22:02;99756.22;;;12.94;100.00
4085;BME280;2057;50.858;6.572;2023-11-19T15:37:10;99747.31;;;11.67;100.00
4085;BME280;2057;50.858;6.572;2023-11-19T15:39:38;99755.69;;;11.63;100.00
4085;BME280;2057;50.858;6.572;2023-11-19T15:42:03;99759.28;;;11.69;100.00
4085;BME280;2057;50.858;6.572;2023-11-19T15:44:29;99762.50;;;11.64;100.00
4085;BME280;2057;50.858;6.572;2023-11-19T15:46:54;99763.31;;;11.63;100.00
4085;BME280;2057;50.858;6.572;2023-11-19T15:49:20;99768.09;;;11.53;100.00
4085;BME280;2057;50.858;6.572;2023-11-19T15:51:48;99757.72;;;11.47;100.00
4085;BME280;2057;50.858;6.572;2023-11-19T15:54:13;99742.34;;;11.44;100.00